Time;durP1;ratioP1;P1;durP2;ratioP2;P2;SDS_P1;SDS_P2;PMS_P1;PMS_P2;Temp;Humidity;BMP_temperature;BMP_pressure;BME280_temperature;BME280_humidity;BME280_pressure;Samples;Min_cycle;Max_cycle;Signal;HPM_P1;HPM_P2
2021/12/13 00:01:15;;;;;;;2.92;2.72;;;6.20;94.60;;;;;;6184098;23;20033;-80
2021/12/13 00:03:56;;;;;;;3.78;3.13;;;6.20;94.70;;;;;;6183903;23;20426;-79
2021/12/13 00:06:30;;;;;;;3.20;2.90;;;6.20;95.40;;;;;;6183969;23;20504;-80
2021/12/13 00:09:01;;;;;;;4.97;3.20;;;6.20;94.80;;;;;;6184136;23;20021;-80
2021/12/13 00:11:32;;;;;;;4.15;2.88;;;6.20;94.80;;;;;;6184287;23;20062;-80
2021/12/13 00:14:08;;;;;;;6.35;2.83;;;6.20;94.70;;;;;;6184239;23;20185;-80
2021/12/13 00:16:38;;;;;;;4.05;3.50;;;6.20;94.70;;;;;;6182234;23;20389;-81
2021/12/13 00:19:11;;;;;;;5.60;3.28;;;6.20;94.90;;;;;;6184034;23;20456;-80
2021/12/13 00:21:41;;;;;;;4.18;3.53;;;6.20;95.10;;;;;;6183722;23;20315;-81
2021/12/13 00:24:32;;;;;;;3.55;3.15;;;6.20;95.70;;;;;;6183926;23;20075;-81
2021/12/13 00:27:22;;;;;;;3.92;3.50;;;6.10;96.20;;;;;;6162511;23;19997;-80
2021/12/13 00:30:11;;;;;;;4.18;3.08;;;6.00;96.50;;;;;;6182236;23;20032;-80
2021/12/13 00:33:07;;;;;;;3.65;3.22;;;6.00;96.30;;;;;;6183954;23;20008;-79
2021/12/13 00:36:05;;;;;;;4.32;3.10;;;6.10;96.20;;;;;;6183776;23;19997;-81
2021/12/13 00:38:40;;;;;;;2.75;2.53;;;6.10;96.40;;;;;;6183649;23;20063;-81
2021/12/13 00:41:16;;;;;;;4.18;3.17;;;6.00;96.30;;;;;;6183559;23;20001;-80
2021/12/13 00:44:03;;;;;;;3.70;3.25;;;6.00;96.40;;;;;;6183865;23;19997;-80
2021/12/13 00:46:29;;;;;;;3.60;3.28;;;6.10;95.80;;;;;;6183775;23;20011;-80
2021/12/13 00:48:59;;;;;;;3.47;3.05;;;6.10;95.60;;;;;;6183720;23;20008;-80
2021/12/13 00:51:32;;;;;;;3.15;2.92;;;6.10;95.60;;;;;;6183631;23;20011;-81
2021/12/13 00:54:02;;;;;;;2.80;2.60;;;6.10;95.50;;;;;;6183681;23;20005;-81
2021/12/13 00:56:59;;;;;;;3.08;2.80;;;6.20;95.80;;;;;;6183571;23;20001;-80
2021/12/13 00:59:33;;;;;;;2.55;2.35;;;6.20;95.90;;;;;;6181947;23;20400;-80
2021/12/13 01:02:05;;;;;;;3.13;2.83;;;6.10;96.20;;;;;;6183334;23;20056;-81
2021/12/13 01:04:52;;;;;;;2.45;2.25;;;6.10;96.40;;;;;;6183274;23;20024;-80
2021/12/13 01:07:59;;;;;;;3.45;2.78;;;6.10;96.10;;;;;;6183476;23;20009;-80
2021/12/13 01:10:40;;;;;;;2.75;2.55;;;6.10;95.90;;;;;;6183611;23;20002;-79
2021/12/13 01:13:32;;;;;;;2.83;2.55;;;6.10;95.70;;;;;;6183668;23;20068;-80
2021/12/13 01:16:10;;;;;;;;;;;6.20;95.40;;;;;;6183759;23;20226;-80
2021/12/13 01:18:59;;;;;;;3.53;2.47;;;6.20;95.00;;;;;;6184108;23;19900;-80
2021/12/13 01:21:43;;;;;;;2.65;2.13;;;6.20;94.90;;;;;;6185704;23;20005;-81
2021/12/13 01:24:30;;;;;;;3.38;2.53;;;6.20;94.80;;;;;;6185516;23;20008;-80
2021/12/13 01:26:55;;;;;;;3.35;3.10;;;6.30;95.10;;;;;;6185433;23;20021;-80
2021/12/13 01:29:26;;;;;;;2.60;2.40;;;6.20;95.10;;;;;;6185220;23;20005;-79
2021/12/13 01:32:01;;;;;;;2.45;2.25;;;6.30;94.80;;;;;;6185427;23;20460;-80
2021/12/13 01:34:30;;;;;;;3.55;2.35;;;6.30;94.90;;;;;;6183806;23;20385;-80
2021/12/13 01:37:08;;;;;;;2.67;2.33;;;6.30;94.60;;;;;;6185150;23;20005;-80
2021/12/13 01:39:37;;;;;;;2.50;2.22;;;6.30;94.20;;;;;;6185539;23;20005;-80
2021/12/13 01:42:13;;;;;;;3.47;2.80;;;6.30;94.60;;;;;;6185444;23;20012;-80
2021/12/13 01:44:46;;;;;;;2.72;2.53;;;6.30;94.70;;;;;;6185490;23;20084;-80
2021/12/13 01:47:19;;;;;;;2.85;2.45;;;6.40;94.60;;;;;;6185174;23;20001;-80
2021/12/13 01:49:53;;;;;;;2.65;2.45;;;6.30;94.80;;;;;;6185211;23;20512;-80
2021/12/13 01:52:25;;;;;;;2.53;2.33;;;6.30;94.60;;;;;;6185191;23;20005;-80
2021/12/13 01:54:53;;;;;;;2.65;2.45;;;6.30;94.80;;;;;;6185080;23;20005;-81
2021/12/13 01:57:38;;;;;;;2.35;2.15;;;6.30;95.00;;;;;;6185085;23;20012;-81
2021/12/13 02:00:18;;;;;;;2.65;2.45;;;6.30;94.90;;;;;;6185083;23;20005;-80
2021/12/13 02:02:54;;;;;;;3.13;2.30;;;6.20;94.90;;;;;;6183719;23;20397;-81
2021/12/13 02:05:24;;;;;;;2.67;2.38;;;6.20;95.10;;;;;;6184768;23;20441;-80
2021/12/13 02:07:55;;;;;;;3.25;2.35;;;6.20;95.10;;;;;;6185185;23;20021;-80
2021/12/13 02:10:29;;;;;;;2.33;2.13;;;6.20;95.20;;;;;;6185206;23;20008;-81
2021/12/13 02:13:01;;;;;;;2.90;2.60;;;6.20;95.40;;;;;;6184963;23;20024;-79
2021/12/13 02:18:21;;;;;;;2.40;2.20;;;6.20;95.70;;;;;;6185238;23;20089;-80
2021/12/13 02:21:03;;;;;;;3.38;2.35;;;6.10;95.30;;;;;;6184799;23;20422;-80
2021/12/13 02:23:29;;;;;;;3.22;2.22;;;6.10;95.40;;;;;;6183287;23;20009;-80
2021/12/13 02:25:57;;;;;;;2.28;2.10;;;6.10;95.40;;;;;;6184879;23;20001;-79
2021/12/13 02:28:30;;;;;;;2.53;2.30;;;6.10;95.20;;;;;;6184857;23;20053;-80
2021/12/13 02:31:14;;;;;;;2.70;2.50;;;6.00;95.70;;;;;;6185354;23;20438;-80
2021/12/13 02:33:45;;;;;;;2.72;2.50;;;6.00;96.20;;;;;;6183240;23;20370;-80
2021/12/13 02:36:15;;;;;;;2.40;2.20;;;5.90;96.10;;;;;;6183256;23;20032;-80
2021/12/13 02:38:44;;;;;;;2.35;2.15;;;5.90;96.30;;;;;;6184867;23;20005;-80
2021/12/13 02:41:10;;;;;;;2.30;2.10;;;5.80;96.30;;;;;;6184550;23;20005;-80
2021/12/13 02:43:41;;;;;;;1.90;1.80;;;5.70;96.10;;;;;;6184752;23;20533;-80
2021/12/13 02:46:08;;;;;;;4.30;2.35;;;5.80;96.30;;;;;;6184608;23;20480;-81
2021/12/13 02:48:42;;;;;;;2.42;2.22;;;5.80;96.40;;;;;;6183108;23;20008;-79
2021/12/13 02:51:16;;;;;;;2.35;2.17;;;5.80;96.60;;;;;;6184787;23;20476;-80
2021/12/13 02:53:42;;;;;;;2.90;2.20;;;5.70;97.10;;;;;;6182998;23;20076;-80
2021/12/13 02:56:10;;;;;;;2.60;2.40;;;5.70;97.00;;;;;;6184678;23;20041;-80
2021/12/13 02:58:38;;;;;;;3.92;2.00;;;5.60;96.80;;;;;;6184484;23;20486;-80
2021/12/13 03:01:25;;;;;;;3.88;2.03;;;5.70;96.80;;;;;;6182744;23;20005;-80
2021/12/13 03:03:59;;;;;;;3.30;2.63;;;5.60;96.60;;;;;;6184178;23;20054;-81
2021/12/13 03:06:29;;;;;;;2.55;2.05;;;5.60;96.70;;;;;;6184600;23;20394;-81
2021/12/13 03:09:00;;;;;;;3.13;2.45;;;5.60;96.90;;;;;;6184465;23;20001;-80
2021/12/13 03:11:32;;;;;;;2.65;2.22;;;5.60;96.90;;;;;;6184458;23;20001;-80
2021/12/13 03:14:30;;;;;;;2.85;2.53;;;5.50;96.70;;;;;;6183035;23;20393;-80
2021/12/13 03:17:03;;;;;;;2.33;2.13;;;5.60;96.70;;;;;;6183070;23;20013;-80
2021/12/13 03:19:38;;;;;;;2.92;2.20;;;5.60;96.70;;;;;;6184691;23;20047;-80
2021/12/13 03:22:29;;;;;;;2.17;1.98;;;5.50;97.00;;;;;;6184560;23;20439;-80
2021/12/13 03:25:13;;;;;;;2.20;2.10;;;5.50;97.00;;;;;;6184234;23;20024;-80
2021/12/13 03:27:48;;;;;;;2.40;2.20;;;5.50;96.90;;;;;;6184266;23;19997;-80
2021/12/13 03:30:25;;;;;;;2.47;2.28;;;5.40;96.30;;;;;;6184164;23;20001;-80
2021/12/13 03:33:04;;;;;;;2.90;2.67;;;5.30;96.60;;;;;;6184637;23;20001;-80
2021/12/13 03:35:41;;;;;;;2.40;2.20;;;5.40;96.60;;;;;;6184039;23;20137;-79
2021/12/13 03:38:16;;;;;;;2.53;2.33;;;5.40;96.80;;;;;;6184063;23;20023;-80
2021/12/13 03:40:43;;;;;;;2.53;2.33;;;5.30;97.10;;;;;;6184192;23;20013;-79
2021/12/13 03:43:17;;;;;;;2.85;2.55;;;5.30;97.20;;;;;;6184186;23;20000;-80
2021/12/13 03:45:47;;;;;;;3.13;2.65;;;5.20;96.90;;;;;;6184215;23;19997;-81
2021/12/13 03:48:17;;;;;;;3.25;2.95;;;5.20;96.80;;;;;;6184298;23;20410;-79
2021/12/13 03:50:48;;;;;;;3.03;2.40;;;5.20;96.80;;;;;;6184342;23;20005;-80
2021/12/13 03:53:17;;;;;;;2.47;2.22;;;5.20;96.80;;;;;;6184300;23;20008;-80
2021/12/13 03:55:48;;;;;;;4.40;2.90;;;5.20;96.50;;;;;;6184037;23;20005;-80
2021/12/13 03:58:18;;;;;;;3.00;2.70;;;5.30;96.30;;;;;;6184005;23;20008;-81
2021/12/13 04:00:55;;;;;;;2.30;2.10;;;5.30;96.10;;;;;;6183862;23;20112;-80
2021/12/13 04:03:23;;;;;;;2.45;2.30;;;5.30;96.10;;;;;;6184068;23;19997;-79
2021/12/13 04:05:50;;;;;;;2.78;2.53;;;5.30;96.10;;;;;;6183788;23;20445;-80
2021/12/13 04:08:18;;;;;;;2.35;2.10;;;5.20;96.20;;;;;;6183939;23;20398;-80
2021/12/13 04:10:54;;;;;;;3.00;2.70;;;5.20;96.10;;;;;;6183882;23;20059;-80
2021/12/13 04:13:24;;;;;;;2.50;2.30;;;5.30;96.10;;;;;;6183913;23;20001;-80
2021/12/13 04:21:23;;;;;;;3.42;2.35;;;5.30;95.90;;;;;;6184843;23;20063;-80
2021/12/13 04:23:55;;;;;;;2.78;2.47;;;5.30;96.00;;;;;;6183617;23;20012;-80
2021/12/13 04:26:25;;;;;;;2.95;2.25;;;5.30;95.90;;;;;;6181986;23;20005;-80
2021/12/13 04:28:55;;;;;;;3.25;2.67;;;5.40;95.80;;;;;;6183722;23;19997;-80
2021/12/13 04:31:25;;;;;;;3.53;2.50;;;5.30;95.60;;;;;;6182187;23;20041;-80
2021/12/13 04:34:00;;;;;;;5.05;4.40;;;5.30;95.60;;;;;;6182182;23;20377;-80
2021/12/13 04:36:30;;;;;;;4.38;3.33;;;5.30;95.50;;;;;;6183514;23;20012;-80
2021/12/13 04:39:04;;;;;;;3.05;2.78;;;5.30;96.30;;;;;;6183555;23;20012;-80
2021/12/13 04:41:42;;;;;;;3.20;2.90;;;5.30;97.30;;;;;;6183592;23;20008;-80
2021/12/13 04:44:12;;;;;;;4.20;3.35;;;5.20;97.50;;;;;;6183866;23;19997;-79
2021/12/13 04:46:41;;;;;;;4.07;3.58;;;5.20;97.70;;;;;;6183871;23;20076;-80
2021/12/13 04:49:10;;;;;;;4.38;3.50;;;5.20;97.80;;;;;;6183365;23;20001;-80
2021/12/13 04:52:04;;;;;;;4.93;4.03;;;5.10;98.30;;;;;;6183621;23;20005;-80
2021/12/13 04:54:33;;;;;;;4.93;4.10;;;5.00;98.20;;;;;;6183394;23;20080;-80
2021/12/13 04:57:00;;;;;;;5.20;3.30;;;4.90;98.60;;;;;;6183565;23;20389;-80
2021/12/13 04:59:29;;;;;;;4.35;3.10;;;4.90;98.90;;;;;;6183249;23;20005;-80
2021/12/13 05:01:58;;;;;;;3.35;2.60;;;4.90;99.00;;;;;;6183407;23;20012;-80
2021/12/13 05:04:25;;;;;;;3.50;3.20;;;5.00;98.80;;;;;;6181624;23;20165;-80
2021/12/13 05:06:52;;;;;;;3.08;2.83;;;5.00;98.40;;;;;;6181938;23;20102;-79
2021/12/13 05:09:21;;;;;;;6.88;3.08;;;5.10;98.50;;;;;;6183702;23;20492;-80
2021/12/13 05:12:13;;;;;;;2.92;2.70;;;5.10;99.00;;;;;;6183748;23;20381;-80
2021/12/13 05:14:47;;;;;;;4.97;2.95;;;5.10;98.50;;;;;;6183370;23;20005;-80
2021/12/13 05:17:41;;;;;;;2.75;2.55;;;5.10;97.90;;;;;;6183250;23;20011;-80
2021/12/13 05:20:14;;;;;;;3.90;2.80;;;5.20;97.10;;;;;;6180348;23;20374;-80
2021/12/13 05:22:47;;;;;;;2.78;2.55;;;5.30;96.70;;;;;;6183542;23;20005;-80
2021/12/13 05:25:30;;;;;;;3.25;2.40;;;5.30;96.90;;;;;;6183329;23;20007;-81
2021/12/13 05:28:04;;;;;;;2.67;2.47;;;5.40;97.00;;;;;;6183516;23;20001;-80
2021/12/13 05:30:32;;;;;;;2.72;2.53;;;5.40;97.10;;;;;;6183369;23;20005;-80
2021/12/13 05:33:04;;;;;;;3.03;2.80;;;5.40;96.60;;;;;;6181831;23;20476;-80
2021/12/13 05:35:33;;;;;;;2.67;2.47;;;5.50;96.90;;;;;;6183484;23;20023;-80
2021/12/13 05:38:05;;;;;;;3.10;2.72;;;5.40;97.60;;;;;;6183354;23;20005;-81
2021/12/13 05:40:36;;;;;;;3.60;2.92;;;5.40;98.10;;;;;;6183480;23;20025;-80
2021/12/13 05:43:21;;;;;;;3.30;3.00;;;5.40;98.30;;;;;;6183531;23;20002;-80
2021/12/13 05:46:04;;;;;;;3.10;2.80;;;5.30;99.40;;;;;;6183347;23;20008;-80
2021/12/13 05:48:38;;;;;;;3.58;2.95;;;5.30;99.70;;;;;;6183211;23;20087;-80
2021/12/13 05:51:25;;;;;;;3.30;3.00;;;5.30;99.90;;;;;;6183444;23;20080;-80
2021/12/13 05:54:27;;;;;;;6.25;3.05;;;5.20;99.90;;;;;;6183429;23;20001;-80
2021/12/13 05:57:06;;;;;;;4.20;3.78;;;5.20;99.90;;;;;;6183502;23;20008;-80
2021/12/13 05:59:35;;;;;;;4.00;3.55;;;5.20;99.90;;;;;;6183033;23;20088;-79
2021/12/13 06:02:15;;;;;;;9.45;3.90;;;5.20;99.90;;;;;;6184857;23;20005;-80
2021/12/13 06:04:44;;;;;;;5.22;3.65;;;5.20;99.90;;;;;;6184986;23;20084;-81
2021/12/13 06:07:22;;;;;;;3.70;3.15;;;5.20;99.70;;;;;;6185267;23;20076;-80
2021/12/13 06:10:03;;;;;;;4.60;3.00;;;5.30;99.20;;;;;;6183347;23;20004;-80
2021/12/13 06:12:37;;;;;;;2.95;2.70;;;5.30;99.20;;;;;;6183515;23;20083;-80
2021/12/13 06:15:15;;;;;;;3.58;2.95;;;5.40;99.60;;;;;;6185070;23;20001;-81
2021/12/13 06:17:45;;;;;;;6.53;4.38;;;5.30;99.90;;;;;;6184906;23;20051;-80
2021/12/13 06:20:16;;;;;;;6.63;4.50;;;5.30;99.90;;;;;;6183283;23;20009;-80
2021/12/13 06:22:42;;;;;;;4.03;3.17;;;5.20;99.90;;;;;;6184734;23;20032;-80
2021/12/13 06:25:22;;;;;;;5.00;2.90;;;5.20;99.90;;;;;;6184747;23;19997;-80
2021/12/13 06:27:56;;;;;;;4.38;3.38;;;5.20;99.90;;;;;;6184843;23;20080;-80
2021/12/13 06:30:26;;;;;;;4.80;3.72;;;5.30;99.90;;;;;;6185110;23;20055;-81
2021/12/13 06:33:08;;;;;;;3.00;2.75;;;5.30;99.90;;;;;;6185034;23;20024;-80
2021/12/13 06:35:51;;;;;;;6.13;3.75;;;5.30;99.90;;;;;;6184663;23;20072;-80
2021/12/13 06:38:55;;;;;;;3.97;3.22;;;5.30;99.90;;;;;;6184684;23;20092;-80
2021/12/13 06:41:27;;;;;;;7.90;4.25;;;5.20;99.90;;;;;;6176400;23;20048;-80
2021/12/13 06:43:56;;;;;;;6.85;5.13;;;5.20;99.90;;;;;;6184640;23;20005;-80
2021/12/13 06:46:25;;;;;;;4.03;3.63;;;5.30;99.90;;;;;;6184470;23;20405;-80
2021/12/13 06:48:59;;;;;;;4.13;3.72;;;5.30;99.90;;;;;;6184466;23;20067;-80
2021/12/13 06:51:50;;;;;;;12.00;4.00;;;5.30;99.90;;;;;;6184602;23;20079;-80
2021/12/13 06:54:24;;;;;;;7.32;4.28;;;5.30;99.90;;;;;;6184518;23;20012;-80
2021/12/13 06:57:02;;;;;;;3.50;3.20;;;5.30;99.90;;;;;;6184757;23;20059;-80
2021/12/13 06:59:30;;;;;;;7.15;3.63;;;5.30;99.90;;;;;;6182812;23;20005;-80
2021/12/13 07:02:07;;;;;;;4.72;4.10;;;5.40;99.80;;;;;;6184369;23;20005;-80
2021/12/13 07:05:05;;;;;;;3.55;3.10;;;5.40;99.80;;;;;;6183879;23;20020;-80
2021/12/13 07:07:57;;;;;;;5.45;3.65;;;5.40;99.20;;;;;;6184392;23;20434;-80
2021/12/13 07:10:33;;;;;;;7.03;3.67;;;5.40;99.10;;;;;;6168169;23;20005;-80
2021/12/13 07:13:22;;;;;;;4.05;3.65;;;5.50;99.50;;;;;;6183855;23;19997;-80
2021/12/13 07:15:57;;;;;;;4.88;3.90;;;5.50;99.60;;;;;;6184212;23;20004;-80
2021/12/13 07:18:30;;;;;;;5.75;4.38;;;5.40;99.90;;;;;;6184249;23;20001;-80
2021/12/13 07:21:02;;;;;;;8.68;5.03;;;5.40;99.90;;;;;;6184149;23;20068;-80
2021/12/13 07:23:48;;;;;;;7.78;5.55;;;5.40;99.90;;;;;;6182468;23;20001;-80
2021/12/13 07:26:14;;;;;;;8.02;5.18;;;5.40;99.90;;;;;;6182627;23;20001;-80
2021/12/13 07:28:40;;;;;;;9.80;5.20;;;5.40;99.90;;;;;;6184193;23;20055;-80
2021/12/13 07:31:08;;;;;;;8.70;4.63;;;5.50;99.90;;;;;;6182783;23;20036;-80
2021/12/13 07:33:42;;;;;;;6.63;3.72;;;5.50;99.90;;;;;;6184321;23;20016;-80
2021/12/13 07:36:21;;;;;;;7.10;4.57;;;5.60;99.90;;;;;;6184182;23;20005;-80
2021/12/13 07:38:53;;;;;;;15.68;7.68;;;5.50;99.90;;;;;;6184325;23;20183;-80
2021/12/13 07:41:19;;;;;;;8.07;5.95;;;5.60;99.90;;;;;;6183873;23;20029;-79
2021/12/13 07:43:46;;;;;;;16.15;7.10;;;5.50;99.90;;;;;;6184398;23;20001;-80
2021/12/13 07:46:17;;;;;;;11.52;6.78;;;5.50;99.90;;;;;;6182453;23;20012;-80
2021/12/13 07:48:43;;;;;;;10.82;5.40;;;5.50;99.90;;;;;;6184423;23;20001;-80
2021/12/13 07:51:15;;;;;;;9.13;5.55;;;5.60;99.90;;;;;;6184019;23;20292;-80
2021/12/13 07:53:44;;;;;;;7.22;5.15;;;5.60;99.90;;;;;;6184088;23;20307;-79
2021/12/13 07:56:18;;;;;;;10.15;4.88;;;5.60;99.90;;;;;;6184040;23;20437;-80
2021/12/13 07:58:47;;;;;;;8.35;4.47;;;5.60;99.90;;;;;;6184180;23;20005;-80
2021/12/13 08:01:24;;;;;;;9.77;4.35;;;5.70;99.90;;;;;;6184046;23;20032;-80
2021/12/13 08:03:53;;;;;;;4.22;3.70;;;5.70;99.90;;;;;;6183792;23;20421;-80
2021/12/13 08:06:19;;;;;;;9.55;4.82;;;5.80;99.90;;;;;;6183860;23;20005;-80
2021/12/13 08:08:49;;;;;;;4.75;4.18;;;5.90;99.90;;;;;;6183975;23;20000;-80
2021/12/13 08:11:18;;;;;;;7.35;4.00;;;5.90;99.90;;;;;;6184046;23;20005;-79
2021/12/13 08:13:58;;;;;;;6.88;5.28;;;6.00;99.80;;;;;;6183748;23;20011;-80
2021/12/13 08:16:38;;;;;;;7.80;4.75;;;6.00;99.60;;;;;;6183708;23;20080;-81
2021/12/13 08:19:09;;;;;;;6.43;4.18;;;6.10;99.10;;;;;;6184008;23;20080;-80
2021/12/13 08:21:45;;;;;;;5.10;4.13;;;6.20;99.10;;;;;;6183933;23;20032;-80
2021/12/13 08:24:34;;;;;;;4.75;4.28;;;6.20;98.70;;;;;;6183467;23;20005;-80
2021/12/13 08:27:11;;;;;;;7.43;5.00;;;6.30;98.20;;;;;;6183833;23;20005;-80
2021/12/13 08:29:40;;;;;;;6.93;5.63;;;6.30;98.20;;;;;;6183950;23;20385;-81
2021/12/13 08:32:19;;;;;;;6.82;5.32;;;6.40;98.70;;;;;;6183832;23;20052;-80
2021/12/13 08:34:54;;;;;;;10.18;6.25;;;6.40;99.80;;;;;;6181988;23;20255;-79
2021/12/13 08:37:23;;;;;;;8.10;5.53;;;6.50;99.90;;;;;;6183589;23;20008;-80
2021/12/13 08:40:08;;;;;;;6.75;5.65;;;6.60;99.60;;;;;;6183623;23;20016;-81
2021/12/13 08:42:40;;;;;;;7.35;6.03;;;6.60;98.70;;;;;;6183457;23;20330;-80
2021/12/13 08:45:26;;;;;;;14.23;6.72;;;6.70;98.60;;;;;;6181928;23;20091;-80
2021/12/13 08:47:59;;;;;;;18.45;7.18;;;6.80;98.40;;;;;;6183673;23;20329;-80
2021/12/13 08:50:41;;;;;;;13.20;8.90;;;6.80;98.60;;;;;;6179609;23;20001;-80
2021/12/13 08:53:35;;;;;;;13.77;8.00;;;6.90;98.80;;;;;;6176908;23;20012;-83
2021/12/13 08:56:07;;;;;;;13.75;8.75;;;7.10;98.00;;;;;;6178713;23;20001;-80
2021/12/13 08:58:34;;;;;;;;;;;7.10;97.50;;;;;;6180583;23;19997;-82
2021/12/13 09:01:10;;;;;;;11.43;8.13;;;7.10;97.70;;;;;;6180495;23;19975;-81
2021/12/13 09:03:36;;;;;;;11.98;8.60;;;7.10;98.60;;;;;;6180655;23;20024;-81
2021/12/13 09:06:11;;;;;;;13.80;9.70;;;7.10;98.70;;;;;;6181288;23;20013;-81
2021/12/13 09:08:46;;;;;;;13.07;9.50;;;7.20;98.70;;;;;;6180802;23;20024;-81
2021/12/13 09:11:17;;;;;;;17.30;10.75;;;7.20;98.30;;;;;;6181029;23;20080;-82
2021/12/13 09:14:14;;;;;;;19.65;12.65;;;7.20;99.10;;;;;;6180614;23;20008;-81
2021/12/13 09:16:54;;;;;;;19.48;12.05;;;7.20;99.50;;;;;;6180611;23;20063;-81
2021/12/13 09:19:29;;;;;;;19.13;12.00;;;7.20;99.60;;;;;;6180790;23;20315;-81
2021/12/13 09:21:58;;;;;;;22.35;13.98;;;7.20;99.90;;;;;;6180055;23;20055;-82
2021/12/13 09:24:32;;;;;;;22.70;13.52;;;7.20;99.90;;;;;;6180877;23;20072;-84
2021/12/13 09:27:16;;;;;;;24.38;14.73;;;7.20;99.90;;;;;;6180960;23;20088;-83
2021/12/13 09:30:13;;;;;;;22.20;14.52;;;7.20;99.90;;;;;;6180985;23;20005;-82
2021/12/13 09:32:59;;;;;;;22.48;14.07;;;7.20;99.90;;;;;;6123100;23;20016;-83
2021/12/13 09:35:41;;;;;;;25.85;15.10;;;7.20;99.90;;;;;;6181122;23;20488;-83
2021/12/13 09:38:31;;;;;;;27.10;14.93;;;7.20;99.90;;;;;;6182498;23;20008;-83
2021/12/13 09:41:18;;;;;;;26.00;15.10;;;7.20;99.90;;;;;;6181594;23;20005;-82
2021/12/13 09:43:51;;;;;;;22.00;14.73;;;7.30;99.90;;;;;;6181390;23;20002;-83
2021/12/13 09:46:56;;;;;;;31.40;16.17;;;7.30;99.90;;;;;;6181800;23;20004;-81
2021/12/13 09:49:27;;;;;;;34.58;16.83;;;7.30;99.90;;;;;;6176035;23;20426;-81
2021/12/13 09:51:58;;;;;;;29.88;16.75;;;7.40;99.90;;;;;;6182603;23;20005;-82
2021/12/13 09:54:38;;;;;;;31.27;17.05;;;7.40;99.90;;;;;;6181839;23;20012;-81
2021/12/13 09:57:08;;;;;;;29.80;17.80;;;7.40;99.90;;;;;;6181972;23;20005;-82
2021/12/13 09:59:40;;;;;;;30.30;17.33;;;7.40;99.90;;;;;;6181570;23;20036;-81
2021/12/13 10:02:17;;;;;;;31.45;15.85;;;7.40;99.90;;;;;;6181077;23;20005;-80
2021/12/13 10:04:45;;;;;;;29.98;15.82;;;7.30;99.90;;;;;;6180758;23;20084;-82
2021/12/13 10:07:17;;;;;;;32.95;16.20;;;7.30;99.90;;;;;;6182757;23;20430;-82
2021/12/13 10:09:52;;;;;;;30.55;15.77;;;7.30;99.90;;;;;;6181930;23;20020;-81
2021/12/13 10:12:20;;;;;;;24.92;15.50;;;7.20;99.90;;;;;;6182020;23;20005;-82
2021/12/13 10:14:51;;;;;;;29.17;16.30;;;7.30;99.90;;;;;;6180039;23;20060;-82
2021/12/13 10:17:19;;;;;;;27.65;14.75;;;7.20;99.40;;;;;;6179320;23;20052;-84
2021/12/13 10:19:49;;;;;;;32.10;15.65;;;7.20;99.60;;;;;;6178820;23;20009;-82
2021/12/13 10:22:20;;;;;;;29.33;15.98;;;7.20;99.80;;;;;;6179921;23;20008;-83
2021/12/13 10:24:51;;;;;;;30.05;15.80;;;7.20;99.50;;;;;;6180221;23;20001;-82
2021/12/13 10:27:18;;;;;;;30.90;16.43;;;7.20;99.80;;;;;;6182045;23;20048;-82
2021/12/13 10:29:49;;;;;;;32.25;16.77;;;7.20;99.90;;;;;;6181551;23;20084;-81
2021/12/13 10:32:24;;;;;;;29.58;16.95;;;7.10;99.90;;;;;;6181840;23;20009;-81
2021/12/13 10:34:54;;;;;;;30.40;16.73;;;7.20;99.90;;;;;;6179979;23;20635;-80
2021/12/13 10:37:28;;;;;;;31.85;17.05;;;7.10;99.90;;;;;;6182235;23;20005;-80
2021/12/13 10:40:07;;;;;;;34.00;17.83;;;7.10;99.90;;;;;;6180405;23;20008;-82
2021/12/13 10:42:39;;;;;;;35.78;18.73;;;7.10;99.90;;;;;;6182000;23;20005;-82
2021/12/13 10:45:10;;;;;;;30.20;17.75;;;7.20;99.90;;;;;;6182158;23;20005;-83
2021/12/13 10:47:42;;;;;;;35.15;17.40;;;7.20;99.90;;;;;;6181140;23;20056;-81
2021/12/13 10:50:15;;;;;;;33.92;18.92;;;7.30;99.90;;;;;;6181724;23;20005;-81
2021/12/13 10:52:44;;;;;;;30.45;17.30;;;7.30;99.90;;;;;;6182258;23;20583;-80
2021/12/13 10:55:16;;;;;;;29.00;17.58;;;7.30;99.90;;;;;;6181798;23;20079;-80
2021/12/13 10:57:47;;;;;;;32.60;18.38;;;7.30;99.90;;;;;;6182773;23;20027;-82
2021/12/13 11:00:17;;;;;;;35.17;19.63;;;7.30;99.90;;;;;;6182154;23;20008;-83
2021/12/13 11:02:44;;;;;;;34.55;19.77;;;7.40;99.90;;;;;;6181961;23;20416;-82
2021/12/13 11:05:18;;;;;;;34.85;19.55;;;7.40;99.90;;;;;;6180803;23;20650;-82
2021/12/13 11:07:44;;;;;;;32.95;18.58;;;7.40;99.90;;;;;;6181266;23;20127;-82
2021/12/13 11:10:15;;;;;;;37.88;19.20;;;7.40;99.90;;;;;;6181181;23;20028;-81
2021/12/13 11:12:52;;;;;;;33.78;19.52;;;7.50;99.90;;;;;;6181554;23;20456;-82
2021/12/13 11:15:22;;;;;;;31.92;17.73;;;7.60;99.90;;;;;;6181903;23;20496;-81
2021/12/13 11:17:48;;;;;;;35.75;17.88;;;7.60;99.90;;;;;;6180706;23;20088;-79
2021/12/13 11:20:22;;;;;;;36.58;20.17;;;7.70;99.90;;;;;;6181740;23;20024;-82
2021/12/13 11:22:49;;;;;;;33.45;18.80;;;7.80;99.90;;;;;;6181865;23;20334;-82
2021/12/13 11:25:36;;;;;;;33.65;18.63;;;7.80;99.90;;;;;;6182451;23;20422;-83
2021/12/13 11:28:02;;;;;;;36.88;19.98;;;7.90;99.90;;;;;;6181136;23;20056;-82
2021/12/13 11:30:31;;;;;;;37.30;19.65;;;7.90;99.90;;;;;;6180659;23;20006;-82
2021/12/13 11:32:56;;;;;;;38.67;20.02;;;7.90;99.90;;;;;;6181201;23;20012;-81
2021/12/13 11:35:47;;;;;;;30.63;20.17;;;8.00;99.90;;;;;;6181684;23;20084;-83
2021/12/13 11:38:55;;;;;;;38.58;20.48;;;8.10;99.90;;;;;;6181618;23;20005;-82
2021/12/13 11:41:49;;;;;;;32.08;20.25;;;8.10;99.90;;;;;;6181583;23;20136;-82
2021/12/13 11:44:49;;;;;;;36.00;20.67;;;8.10;99.90;;;;;;6180381;23;20087;-82
2021/12/13 11:47:52;;;;;;;34.45;20.10;;;8.00;99.90;;;;;;6180001;23;20738;-81
2021/12/13 11:50:54;;;;;;;34.10;20.90;;;8.00;99.90;;;;;;6181080;23;20382;-81
2021/12/13 11:53:42;;;;;;;36.23;19.37;;;8.00;99.90;;;;;;6179570;23;20009;-81
2021/12/13 11:56:43;;;;;;;36.10;19.77;;;8.10;99.90;;;;;;6181441;23;20274;-83
2021/12/13 11:59:34;;;;;;;34.97;21.23;;;8.20;99.40;;;;;;6181096;23;20012;-82
2021/12/13 12:02:10;;;;;;;34.60;19.48;;;8.20;99.30;;;;;;6167077;23;20009;-81
2021/12/13 12:05:13;;;;;;;38.47;19.27;;;8.20;99.60;;;;;;6180516;23;20449;-81
2021/12/13 12:08:03;;;;;;;31.25;19.25;;;8.20;99.30;;;;;;6180240;23;20620;-81
2021/12/13 12:11:01;;;;;;;36.10;19.70;;;8.20;99.10;;;;;;6181148;23;20001;-82
2021/12/13 12:13:50;;;;;;;32.63;18.65;;;8.30;99.20;;;;;;6132024;23;20005;-82
2021/12/13 12:16:22;;;;;;;35.33;18.65;;;8.30;98.80;;;;;;6182016;23;20001;-81
2021/12/13 12:18:50;;;;;;;;;;;8.30;98.80;;;;;;6182365;23;20005;-81
2021/12/13 12:21:31;;;;;;;32.03;17.10;;;8.40;98.70;;;;;;6180493;23;19904;-81
2021/12/13 12:23:58;;;;;;;32.25;17.02;;;8.40;98.10;;;;;;6179920;23;20009;-81
2021/12/13 12:26:25;;;;;;;28.98;16.95;;;8.50;98.20;;;;;;6181642;23;20015;-81
2021/12/13 12:28:58;;;;;;;24.75;16.05;;;8.60;97.70;;;;;;6180417;23;20068;-81
2021/12/13 12:31:29;;;;;;;29.08;17.10;;;8.60;98.20;;;;;;6181304;23;20004;-79
2021/12/13 12:33:59;;;;;;;29.83;17.00;;;8.60;98.00;;;;;;6181131;23;20047;-82
2021/12/13 12:36:45;;;;;;;27.50;17.23;;;8.60;97.50;;;;;;6182005;23;20012;-82
2021/12/13 12:39:32;;;;;;;29.08;17.83;;;8.60;97.30;;;;;;6180987;23;20008;-82
2021/12/13 12:42:30;;;;;;;28.45;16.48;;;8.60;97.80;;;;;;6179056;23;20005;-82
2021/12/13 12:44:56;;;;;;;33.95;17.35;;;8.60;98.10;;;;;;6181571;23;20051;-83
2021/12/13 12:47:34;;;;;;;37.80;18.98;;;8.70;98.40;;;;;;6181067;23;20377;-81
2021/12/13 12:50:15;;;;;;;32.95;17.50;;;8.70;98.50;;;;;;6179662;23;20005;-82
2021/12/13 12:52:48;;;;;;;29.88;16.50;;;8.80;97.90;;;;;;6181799;23;20059;-79
2021/12/13 12:55:19;;;;;;;29.95;17.23;;;8.80;97.50;;;;;;6180960;23;20005;-81
2021/12/13 12:57:45;;;;;;;30.98;17.90;;;8.80;97.70;;;;;;6178465;23;20508;-81
2021/12/13 13:00:12;;;;;;;27.95;17.77;;;8.90;98.20;;;;;;6180747;23;20035;-81
2021/12/13 13:02:38;;;;;;;33.75;19.00;;;8.90;98.30;;;;;;6179131;23;20268;-80
2021/12/13 13:05:07;;;;;;;31.88;17.10;;;8.80;98.00;;;;;;6181039;23;20013;-80
2021/12/13 13:07:37;;;;;;;27.48;16.65;;;8.80;98.10;;;;;;6181927;23;20075;-80
2021/12/13 13:13:03;;;;;;;28.65;18.15;;;8.80;97.90;;;;;;6183856;23;20087;-81
2021/12/13 13:15:34;;;;;;;31.90;18.13;;;8.80;98.20;;;;;;6181917;23;20438;-79
2021/12/13 13:18:03;;;;;;;29.52;17.67;;;8.70;98.40;;;;;;6181710;23;20016;-80
2021/12/13 13:20:34;;;;;;;31.38;18.45;;;8.80;98.50;;;;;;6181627;23;20012;-80
2021/12/13 13:23:02;;;;;;;30.02;17.58;;;8.70;98.80;;;;;;6181941;23;20012;-80
2021/12/13 13:25:38;;;;;;;31.30;18.63;;;8.80;98.80;;;;;;6181085;23;20009;-80
2021/12/13 13:28:19;;;;;;;30.63;17.80;;;8.80;98.50;;;;;;6181606;23;19997;-80
2021/12/13 13:31:03;;;;;;;30.17;18.38;;;8.80;98.50;;;;;;6181982;23;20024;-80
2021/12/13 13:33:42;;;;;;;30.67;17.63;;;8.80;98.70;;;;;;6182019;23;20004;-80
2021/12/13 13:36:13;;;;;;;29.85;18.13;;;8.80;98.50;;;;;;6182112;23;20007;-80
2021/12/13 13:38:39;;;;;;;32.05;17.42;;;8.80;98.50;;;;;;6182440;23;20001;-80
2021/12/13 13:41:12;;;;;;;32.53;17.75;;;8.80;98.60;;;;;;6184094;23;20004;-72
2021/12/13 13:43:39;;;;;;;28.15;17.92;;;8.80;98.70;;;;;;6177515;23;20067;-72
2021/12/13 13:46:06;;;;;;;29.80;18.05;;;8.80;98.60;;;;;;6178421;23;19997;-72